createdAt,value
2018-02-08T00:01:50.582Z,106.25
2018-02-08T00:04:18.212Z,110.55
2018-02-08T00:06:45.866Z,111.65
2018-02-08T00:09:14.258Z,108.55
2018-02-08T00:11:42.704Z,97.03
2018-02-08T00:14:10.364Z,96.43
2018-02-08T00:16:37.998Z,108.65
2018-02-08T00:19:06.380Z,95.70
2018-02-08T00:21:34.825Z,108.78
2018-02-08T00:24:02.448Z,106.28
2018-02-08T00:26:30.842Z,99.18
2018-02-08T00:28:59.266Z,97.62
2018-02-08T00:31:26.885Z,90.95
2018-02-08T00:33:54.501Z,96.50
2018-02-08T00:36:22.160Z,108.07
2018-02-08T00:38:50.562Z,108.97
2018-02-08T00:41:18.953Z,103.85
2018-02-08T00:43:46.625Z,105.78
2018-02-08T00:46:15.041Z,105.22
2018-02-08T00:48:42.664Z,108.87
2018-02-08T00:51:10.648Z,93.47
2018-02-08T00:53:38.270Z,92.43
2018-02-08T00:56:05.889Z,96.28
2018-02-08T00:58:33.546Z,98.03
2018-02-08T01:01:01.169Z,95.57
2018-02-08T01:03:29.563Z,103.87
2018-02-08T01:05:57.993Z,104.90
2018-02-08T01:08:25.617Z,104.40
2018-02-08T01:10:54.006Z,106.43
2018-02-08T01:13:22.440Z,103.07
2018-02-08T01:15:50.069Z,100.60
2018-02-08T01:18:17.694Z,106.82
2018-02-08T01:20:45.348Z,120.97
2018-02-08T01:23:12.969Z,109.05
2018-02-08T01:25:40.590Z,120.72
2018-02-08T01:28:09.005Z,122.25
2018-02-08T01:30:36.630Z,118.10
2018-02-08T01:33:04.265Z,121.50
2018-02-08T01:35:31.925Z,106.28
2018-02-08T01:37:59.625Z,108.75
2018-02-08T01:40:27.252Z,110.40
2018-02-08T01:42:55.677Z,114.37
2018-02-08T01:45:23.290Z,99.25
2018-02-08T01:47:50.914Z,111.68
2018-02-08T01:50:18.573Z,108.35
2018-02-08T01:52:46.197Z,99.55
2018-02-08T01:55:13.819Z,88.18
2018-02-08T01:57:41.475Z,87.68
2018-02-08T02:00:09.860Z,103.22
2018-02-08T02:02:37.468Z,91.72
2018-02-08T02:05:05.122Z,89.15
2018-02-08T02:07:33.513Z,102.35
2018-02-08T02:10:01.906Z,107.68
2018-02-08T02:12:30.329Z,97.57
2018-02-08T02:14:57.953Z,100.50
2018-02-08T02:17:25.574Z,100.50
2018-02-08T02:19:53.250Z,103.28
2018-02-08T02:22:20.874Z,95.55
2018-02-08T02:24:48.507Z,104.68
2018-02-08T02:27:16.165Z,105.87
2018-02-08T02:29:43.793Z,99.65
2018-02-08T02:32:11.417Z,94.78
2018-02-08T02:34:39.082Z,117.43
2018-02-08T02:37:06.706Z,106.68
2018-02-08T02:39:34.325Z,99.28
2018-02-08T02:42:01.990Z,113.57
2018-02-08T02:44:30.382Z,109.65
2018-02-08T02:46:58.778Z,101.70
2018-02-08T02:49:26.444Z,95.80
2018-02-08T02:51:54.836Z,105.35
2018-02-08T02:54:23.218Z,93.57
2018-02-08T02:56:50.877Z,102.03
2018-02-08T02:59:18.501Z,109.10
2018-02-08T03:01:46.129Z,113.20
2018-02-08T03:04:13.781Z,106.80
2018-02-08T03:06:41.401Z,107.70
2018-02-08T03:09:09.790Z,104.28
2018-02-08T03:11:38.240Z,109.57
2018-02-08T03:14:05.866Z,103.93
2018-02-08T03:16:33.501Z,108.15
2018-02-08T03:19:01.267Z,108.37
2018-02-08T03:21:28.888Z,99.32
2018-02-08T03:23:57.277Z,98.78
2018-02-08T03:26:25.708Z,113.55
2018-02-08T03:29:00.124Z,102.15
2018-02-08T03:31:28.225Z,117.50
2018-02-08T03:33:55.849Z,104.93
2018-02-08T03:36:23.460Z,94.93
2018-02-08T03:38:51.126Z,101.53
2018-02-08T03:41:18.754Z,103.65
2018-02-08T03:43:46.382Z,97.45
2018-02-08T03:46:14.042Z,114.37
2018-02-08T03:48:41.660Z,103.65
2018-02-08T03:51:09.284Z,127.85
2018-02-08T03:53:36.948Z,110.88
2018-02-08T03:56:04.569Z,109.18
2018-02-08T03:58:32.960Z,116.82
2018-02-08T04:01:00.625Z,110.05
2018-02-08T04:03:28.254Z,112.35
2018-02-08T04:05:55.902Z,113.60
2018-02-08T04:08:24.332Z,117.47
2018-02-08T04:10:51.962Z,113.05
2018-02-08T04:13:19.585Z,112.80
2018-02-08T04:15:47.244Z,128.18
2018-02-08T04:18:14.877Z,129.32
2018-02-08T04:20:43.266Z,122.60
2018-02-08T04:23:10.930Z,114.35
2018-02-08T04:25:38.549Z,116.30
2018-02-08T04:28:06.173Z,117.22
2018-02-08T04:30:33.837Z,118.18
2018-02-08T04:33:01.466Z,111.25
2018-02-08T04:35:29.093Z,123.40
2018-02-08T04:37:56.754Z,129.50
2018-02-08T04:40:36.158Z,121.62
2018-02-08T04:43:15.634Z,135.25
2018-02-08T04:45:55.069Z,134.40
2018-02-08T04:48:22.729Z,122.72
2018-02-08T04:50:51.122Z,127.80
2018-02-08T04:53:19.509Z,123.35
2018-02-08T04:55:47.936Z,131.90
2018-02-08T04:58:15.562Z,128.98
2018-02-08T05:00:43.194Z,132.12
2018-02-08T05:03:10.857Z,128.20
2018-02-08T05:05:38.545Z,110.43
2018-02-08T05:08:06.169Z,130.32
2018-02-08T05:10:34.594Z,129.95
2018-02-08T05:13:02.219Z,122.47
2018-02-08T05:15:29.844Z,126.22
2018-02-08T05:17:57.505Z,122.05
2018-02-08T05:20:25.134Z,120.28
2018-02-08T05:22:52.754Z,130.20
2018-02-08T05:25:20.413Z,124.90
2018-02-08T05:27:48.801Z,121.68
2018-02-08T05:30:17.193Z,129.23
2018-02-08T05:32:45.623Z,131.12
2018-02-08T05:35:13.265Z,130.02
2018-02-08T05:37:41.668Z,118.93
2018-02-08T05:40:09.349Z,118.50
2018-02-08T05:42:37.266Z,115.47
2018-02-08T05:45:04.894Z,112.53
2018-02-08T05:47:33.329Z,101.72
2018-02-08T05:50:00.949Z,107.00
2018-02-08T05:52:29.349Z,123.30
2018-02-08T05:54:57.794Z,114.35
2018-02-08T05:57:25.422Z,111.90
2018-02-08T05:59:53.812Z,109.45
2018-02-08T06:02:21.483Z,105.45
2018-02-08T06:04:49.877Z,114.65
2018-02-08T06:07:18.322Z,113.07
2018-02-08T06:09:46.022Z,112.15
2018-02-08T06:12:13.641Z,117.07
2018-02-08T06:14:41.269Z,109.30
2018-02-08T06:17:08.933Z,117.72
2018-02-08T06:19:36.557Z,112.68
2018-02-08T06:22:04.185Z,107.30
2018-02-08T06:24:31.842Z,119.18
2018-02-08T06:26:59.461Z,123.30
2018-02-08T06:29:27.840Z,128.07
2018-02-08T06:31:55.584Z,108.75
2018-02-08T06:34:23.210Z,125.90
2018-02-08T06:36:50.841Z,112.37
2018-02-08T06:39:18.497Z,112.47
2018-02-08T06:41:46.121Z,103.95
2018-02-08T06:44:14.504Z,112.35
2018-02-08T06:46:42.161Z,123.78
2018-02-08T06:49:10.581Z,122.15
2018-02-08T06:51:38.964Z,123.57
2018-02-08T06:54:06.635Z,115.25
2018-02-08T06:56:35.098Z,117.45
2018-02-08T06:59:02.729Z,119.05
2018-02-08T07:01:31.148Z,119.45
2018-02-08T07:03:58.768Z,116.88
2018-02-08T07:06:26.413Z,129.98
2018-02-08T07:08:54.112Z,125.55
2018-02-08T07:11:21.725Z,122.28
2018-02-08T07:13:49.345Z,122.18
2018-02-08T07:16:17.025Z,122.32
2018-02-08T07:18:44.657Z,111.62
2018-02-08T07:21:12.286Z,107.78
2018-02-08T07:23:39.945Z,119.97
2018-02-08T07:26:07.565Z,120.85
2018-02-08T07:28:36.265Z,125.30
2018-02-08T07:31:04.290Z,117.32
2018-02-08T07:33:33.453Z,131.82
2018-02-08T07:36:01.841Z,126.43
2018-02-08T07:38:30.273Z,129.05
2018-02-08T07:40:58.145Z,136.27
2018-02-08T07:43:27.684Z,126.82
2018-02-08T07:45:55.340Z,114.53
2018-02-08T07:48:22.981Z,107.72
2018-02-08T07:50:51.373Z,132.85
2018-02-08T07:53:20.304Z,127.40
2018-02-08T07:55:47.927Z,112.85
2018-02-08T07:58:15.550Z,110.18
2018-02-08T08:00:43.225Z,123.93
2018-02-08T08:03:10.928Z,119.25
2018-02-08T08:05:38.548Z,119.68
2018-02-08T08:08:08.329Z,118.07
2018-02-08T08:10:35.950Z,125.78
2018-02-08T08:13:04.338Z,116.70
2018-02-08T08:15:32.758Z,114.88
2018-02-08T08:18:00.380Z,116.55
2018-02-08T08:20:29.189Z,133.77
2018-02-08T08:22:56.987Z,117.70
2018-02-08T08:25:24.617Z,124.60
2018-02-08T08:27:52.236Z,124.90
2018-02-08T08:30:20.661Z,107.65
2018-02-08T08:32:48.285Z,119.80
2018-02-08T08:35:18.296Z,104.15
2018-02-08T08:37:45.984Z,112.97
2018-02-08T08:40:13.606Z,116.40
2018-02-08T08:42:43.359Z,118.13
2018-02-08T08:45:11.012Z,126.30
2018-02-08T08:47:38.717Z,120.68
2018-02-08T08:50:06.344Z,96.22
2018-02-08T08:52:34.006Z,103.95
2018-02-08T08:55:02.395Z,111.47
2018-02-08T08:57:32.357Z,113.88
2018-02-08T09:00:00.033Z,115.37
2018-02-08T09:02:27.660Z,102.35
2018-02-08T09:04:55.276Z,119.35
2018-02-08T09:07:23.741Z,112.07
2018-02-08T09:09:52.124Z,108.03
2018-02-08T09:12:20.585Z,108.60
2018-02-08T09:14:48.241Z,110.53
2018-02-08T09:17:15.872Z,110.95
2018-02-08T09:19:43.488Z,104.55
2018-02-08T09:22:11.159Z,116.85
2018-02-08T09:24:39.884Z,110.70
2018-02-08T09:27:07.521Z,111.15
2018-02-08T09:29:35.185Z,114.93
2018-02-08T09:32:02.809Z,110.03
2018-02-08T09:34:30.432Z,115.18
2018-02-08T09:36:58.551Z,104.38
2018-02-08T09:39:26.180Z,101.87
2018-02-08T09:41:54.837Z,105.10
2018-02-08T09:44:22.848Z,118.13
2018-02-08T09:46:51.000Z,117.25
2018-02-08T09:49:18.627Z,108.20
2018-02-08T09:51:47.009Z,105.00
2018-02-08T09:54:14.633Z,105.32
2018-02-08T09:56:42.253Z,104.95
2018-02-08T09:59:10.734Z,109.37
2018-02-08T10:01:39.210Z,106.30
2018-02-08T10:04:06.853Z,98.82
2018-02-08T10:06:34.514Z,101.95
2018-02-08T10:09:02.141Z,102.68
2018-02-08T10:11:29.756Z,99.95
2018-02-08T10:13:58.369Z,106.40
2018-02-08T10:16:25.992Z,92.93
2018-02-08T10:18:53.627Z,103.43
2018-02-08T10:21:21.274Z,98.50
2018-02-08T10:23:49.652Z,92.32
2018-02-08T10:26:18.316Z,88.43
2018-02-08T10:28:45.989Z,93.20
2018-02-08T10:31:13.605Z,91.65
2018-02-08T10:33:41.991Z,92.78
2018-02-08T10:36:10.268Z,94.75
2018-02-08T10:38:38.016Z,94.75
2018-02-08T10:41:05.601Z,79.82
2018-02-08T10:43:33.251Z,87.82
2018-02-08T10:46:00.867Z,98.22
2018-02-08T10:48:28.485Z,85.97
2018-02-08T10:50:57.319Z,75.25
2018-02-08T10:53:25.141Z,82.57
2018-02-08T10:55:53.525Z,73.12
2018-02-08T10:58:21.176Z,80.68
2018-02-08T11:00:48.797Z,76.15
2018-02-08T11:03:16.409Z,76.90
2018-02-08T11:05:44.085Z,74.70
2018-02-08T11:08:11.692Z,51.35
2018-02-08T11:10:39.435Z,61.67
2018-02-08T11:13:07.750Z,58.55
2018-02-08T11:15:35.368Z,56.37
2018-02-08T11:18:02.984Z,71.07
2018-02-08T11:20:30.633Z,69.03
2018-02-08T11:22:59.276Z,72.25
2018-02-08T11:25:26.951Z,68.10
2018-02-08T11:27:54.600Z,65.22
2018-02-08T11:30:22.209Z,63.85
2018-02-08T11:32:50.592Z,67.12
2018-02-08T11:35:19.260Z,61.40
2018-02-08T11:37:46.873Z,57.28
2018-02-08T11:40:14.509Z,67.75
2018-02-08T11:42:42.211Z,79.05
2018-02-08T11:45:10.039Z,69.60
2018-02-08T11:47:37.655Z,83.55
2018-02-08T11:50:06.206Z,71.87
2018-02-08T11:52:33.845Z,68.37
2018-02-08T11:55:02.501Z,76.57
2018-02-08T11:57:30.970Z,83.30
2018-02-08T11:59:58.581Z,75.62
2018-02-08T12:02:26.199Z,79.32
2018-02-08T12:04:53.849Z,88.57
2018-02-08T12:07:21.465Z,67.80
2018-02-08T12:09:50.000Z,66.12
2018-02-08T12:12:17.644Z,66.70
2018-02-08T12:14:45.271Z,67.20
2018-02-08T12:17:13.665Z,57.53
2018-02-08T12:19:42.492Z,55.40
2018-02-08T12:22:10.473Z,55.53
2018-02-08T12:24:38.096Z,56.05
2018-02-08T12:27:05.749Z,57.53
2018-02-08T12:29:33.356Z,52.28
2018-02-08T12:32:00.978Z,57.35
2018-02-08T12:34:29.328Z,53.05
2018-02-08T12:36:56.948Z,52.92
2018-02-08T12:39:24.556Z,49.22
2018-02-08T12:41:52.204Z,50.33
2018-02-08T12:44:19.813Z,56.30
2018-02-08T12:46:48.898Z,53.30
2018-02-08T12:49:16.547Z,48.95
2018-02-08T12:51:44.179Z,50.88
2018-02-08T12:54:11.794Z,55.12
2018-02-08T12:56:39.496Z,57.50
2018-02-08T12:59:07.145Z,45.40
2018-02-08T13:01:34.763Z,54.05
2018-02-08T13:04:03.101Z,58.13
2018-02-08T13:06:30.712Z,54.30
2018-02-08T13:08:58.332Z,60.70
2018-02-08T13:11:32.884Z,53.92
2018-02-08T13:14:00.501Z,48.87
2018-02-08T13:16:28.125Z,53.50
2018-02-08T13:18:55.782Z,60.78
2018-02-08T13:21:24.796Z,48.72
2018-02-08T13:23:56.437Z,50.88
2018-02-08T13:26:24.053Z,57.17
2018-02-08T13:28:51.672Z,54.40
2018-02-08T13:31:25.012Z,54.95
2018-02-08T13:33:53.399Z,53.40
2018-02-08T13:36:21.008Z,54.90
2018-02-08T13:38:48.649Z,55.30
2018-02-08T13:41:20.177Z,49.95
2018-02-08T13:43:47.820Z,58.63
2018-02-08T13:46:15.484Z,54.08
2018-02-08T13:48:43.104Z,49.10
2018-02-08T13:51:16.639Z,52.00
2018-02-08T13:53:50.649Z,59.08
2018-02-08T13:56:23.956Z,51.20
2018-02-08T13:59:11.436Z,49.28
2018-02-08T14:01:40.797Z,46.85
2018-02-08T14:04:08.405Z,55.72
2018-02-08T14:06:36.096Z,49.75
2018-02-08T14:09:03.753Z,45.88
2018-02-08T14:11:31.365Z,48.17
2018-02-08T14:13:58.981Z,41.70
2018-02-08T14:16:26.646Z,46.50
2018-02-08T14:18:54.261Z,48.63
2018-02-08T14:21:22.636Z,45.15
2018-02-08T14:23:50.387Z,43.03
2018-02-08T14:26:17.996Z,53.47
2018-02-08T14:28:45.604Z,49.40
2018-02-08T14:31:13.310Z,50.38
2018-02-08T14:33:40.916Z,50.42
2018-02-08T14:36:08.762Z,42.58
2018-02-08T14:38:36.437Z,46.97
2018-02-08T14:41:04.058Z,49.03
2018-02-08T14:43:32.433Z,53.58
2018-02-08T14:46:00.089Z,51.63
2018-02-08T14:48:27.712Z,53.78
2018-02-08T14:50:55.426Z,49.58
2018-02-08T14:53:23.081Z,48.92
2018-02-08T14:55:50.698Z,49.20
2018-02-08T14:58:18.316Z,48.58
2018-02-08T15:00:45.968Z,52.15
2018-02-08T15:03:14.357Z,46.28
2018-02-08T15:05:42.745Z,53.10
2018-02-08T15:08:11.162Z,51.22
2018-02-08T15:10:38.802Z,54.33
2018-02-08T15:13:06.417Z,49.17
2018-02-08T15:15:34.325Z,53.40
2018-02-08T15:18:01.994Z,49.22
2018-02-08T15:20:29.642Z,47.38
2018-02-08T15:22:57.301Z,51.97
2018-02-08T15:25:24.997Z,49.10
2018-02-08T15:27:52.704Z,53.10
2018-02-08T15:30:20.359Z,51.42
2018-02-08T15:32:48.346Z,52.60
2018-02-08T15:35:15.979Z,47.58
2018-02-08T15:37:43.806Z,56.40
2018-02-08T15:40:11.419Z,53.60
2018-02-08T15:42:39.033Z,54.58
2018-02-08T15:45:07.684Z,53.63
2018-02-08T15:47:36.384Z,56.90
2018-02-08T15:50:04.306Z,53.08
2018-02-08T15:52:31.983Z,59.53
2018-02-08T15:54:59.641Z,47.78
2018-02-08T15:57:28.025Z,49.15
2018-02-08T15:59:58.765Z,59.13
2018-02-08T16:02:27.140Z,55.70
2018-02-08T16:04:56.042Z,56.83
2018-02-08T16:07:23.688Z,55.90
2018-02-08T16:09:51.303Z,61.22
2018-02-08T16:12:18.926Z,55.85
2018-02-08T16:14:46.576Z,49.45
2018-02-08T16:17:14.205Z,51.58
2018-02-08T16:19:42.617Z,54.72
2018-02-08T16:22:10.498Z,58.00
2018-02-08T16:24:38.891Z,55.97
2018-02-08T16:27:07.725Z,56.55
2018-02-08T16:29:35.396Z,64.18
2018-02-08T16:32:03.106Z,62.97
2018-02-08T16:34:30.716Z,60.65
2018-02-08T16:36:58.662Z,49.03
2018-02-08T16:39:26.274Z,57.55
2018-02-08T16:41:55.190Z,58.50
2018-02-08T16:44:23.633Z,56.90
2018-02-08T16:46:51.245Z,62.30
2018-02-08T16:49:20.113Z,65.97
2018-02-08T16:51:47.835Z,74.20
2018-02-08T16:54:16.218Z,65.05
2018-02-08T16:56:43.965Z,56.85
2018-02-08T16:59:11.604Z,61.83
2018-02-08T17:01:39.221Z,62.45
2018-02-08T17:04:06.874Z,59.70
2018-02-08T17:06:34.537Z,58.80
2018-02-08T17:09:02.162Z,54.85
2018-02-08T17:11:30.538Z,63.85
2018-02-08T17:13:59.768Z,61.08
2018-02-08T17:16:28.149Z,56.97
2018-02-08T17:18:55.772Z,56.33
2018-02-08T17:21:23.447Z,60.78
2018-02-08T17:23:51.990Z,50.40
2018-02-08T17:26:19.628Z,63.47
2018-02-08T17:28:47.314Z,52.97
2018-02-08T17:31:14.941Z,54.67
2018-02-08T17:33:43.391Z,58.17
2018-02-08T17:36:12.553Z,60.75
2018-02-08T17:38:40.176Z,55.47
2018-02-08T17:41:07.793Z,54.20
2018-02-08T17:43:35.444Z,52.42
2018-02-08T17:46:03.990Z,56.03
2018-02-08T17:48:31.614Z,56.45
2018-02-08T17:51:00.036Z,59.00
2018-02-08T17:53:27.662Z,59.95
2018-02-08T17:55:56.301Z,61.65
2018-02-08T17:58:23.961Z,55.10
2018-02-08T18:00:52.349Z,59.95
2018-02-08T18:03:20.737Z,68.15
2018-02-08T18:05:48.393Z,60.10
2018-02-08T18:08:16.088Z,66.75
2018-02-08T18:10:43.961Z,54.05
2018-02-08T18:13:11.619Z,56.90
2018-02-08T18:15:39.228Z,58.58
2018-02-08T18:18:07.604Z,61.33
2018-02-08T18:20:35.265Z,63.72
2018-02-08T18:23:02.881Z,67.90
2018-02-08T18:25:30.494Z,62.22
2018-02-08T18:27:58.147Z,64.65
2018-02-08T18:30:25.765Z,55.80
2018-02-08T18:32:53.377Z,66.40
2018-02-08T18:35:22.342Z,63.13
2018-02-08T18:37:49.952Z,59.50
2018-02-08T18:40:18.925Z,59.47
2018-02-08T18:42:46.766Z,66.62
2018-02-08T18:45:14.400Z,58.08
2018-02-08T18:47:43.016Z,59.17
2018-02-08T18:50:10.730Z,63.03
2018-02-08T18:52:38.345Z,71.57
2018-02-08T18:55:06.724Z,59.22
2018-02-08T18:57:34.375Z,61.20
2018-02-08T19:00:02.002Z,63.13
2018-02-08T19:02:30.376Z,63.40
2018-02-08T19:04:58.925Z,65.18
2018-02-08T19:07:26.770Z,59.72
2018-02-08T19:09:54.392Z,67.05
2018-02-08T19:12:22.069Z,56.35
2018-02-08T19:14:49.829Z,63.17
2018-02-08T19:17:17.469Z,62.75
2018-02-08T19:19:45.129Z,63.38
2018-02-08T19:22:13.505Z,66.50
2018-02-08T19:24:46.909Z,58.30
2018-02-08T19:27:14.525Z,62.78
2018-02-08T19:29:42.139Z,59.55
2018-02-08T19:32:09.785Z,56.90
2018-02-08T19:34:37.417Z,58.25
2018-02-08T19:37:10.973Z,58.55
2018-02-08T19:39:38.673Z,56.50
2018-02-08T19:42:06.346Z,55.75
2018-02-08T19:44:34.006Z,58.72
2018-02-08T19:47:01.621Z,61.90
2018-02-08T19:49:35.311Z,65.72
2018-02-08T19:52:03.019Z,60.70
2018-02-08T19:54:30.660Z,63.15
2018-02-08T19:56:58.320Z,61.63
2018-02-08T19:59:25.937Z,65.45
2018-02-08T20:01:58.912Z,69.80
2018-02-08T20:04:26.586Z,63.80
2018-02-08T20:06:54.212Z,60.25
2018-02-08T20:09:22.629Z,69.25
2018-02-08T20:11:50.253Z,65.80
2018-02-08T20:14:25.480Z,69.45
2018-02-08T20:16:53.156Z,63.17
2018-02-08T20:19:20.769Z,61.65
2018-02-08T20:21:49.196Z,54.17
2018-02-08T20:24:23.101Z,55.85
2018-02-08T20:26:51.545Z,63.85
2018-02-08T20:29:19.165Z,63.00
2018-02-08T20:31:47.556Z,68.32
2018-02-08T20:34:19.478Z,64.95
2018-02-08T20:36:48.307Z,57.15
2018-02-08T20:39:15.931Z,64.28
2018-02-08T20:41:43.609Z,69.12
2018-02-08T20:44:11.241Z,69.50
2018-02-08T20:46:40.671Z,63.40
2018-02-08T20:49:08.368Z,71.07
2018-02-08T20:51:36.079Z,79.15
2018-02-08T20:54:04.575Z,69.45
2018-02-08T20:56:32.310Z,72.28
2018-02-08T20:59:04.768Z,67.60
2018-02-08T21:01:33.534Z,67.53
2018-02-08T21:04:01.149Z,68.50
2018-02-08T21:06:29.544Z,60.78
2018-02-08T21:08:57.961Z,61.67
2018-02-08T21:11:31.426Z,59.83
2018-02-08T21:13:59.060Z,58.97
2018-02-08T21:16:26.681Z,57.08
2018-02-08T21:18:54.329Z,59.75
2018-02-08T21:21:22.012Z,54.72
2018-02-08T21:23:53.039Z,64.72
2018-02-08T21:26:21.531Z,63.17
2018-02-08T21:28:49.176Z,60.63
2018-02-08T21:31:16.812Z,63.95
2018-02-08T21:33:44.461Z,69.72
2018-02-08T21:36:14.805Z,61.63
2018-02-08T21:38:44.729Z,67.15
2018-02-08T21:41:12.340Z,63.08
2018-02-08T21:43:39.980Z,65.93
2018-02-08T21:46:07.641Z,71.87
2018-02-08T21:48:35.256Z,72.47
2018-02-08T21:51:07.921Z,70.00
2018-02-08T21:53:35.573Z,61.55
2018-02-08T21:56:03.198Z,67.57
2018-02-08T21:58:34.938Z,64.47
2018-02-08T22:01:05.341Z,61.63
2018-02-08T22:03:32.957Z,67.53
2018-02-08T22:06:00.629Z,73.22
2018-02-08T22:08:28.257Z,71.72
2018-02-08T22:10:57.311Z,70.87
2018-02-08T22:13:29.605Z,64.12
2018-02-08T22:15:57.228Z,67.50
2018-02-08T22:18:25.616Z,65.85
2018-02-08T22:20:54.029Z,73.95
2018-02-08T22:23:25.393Z,70.80
2018-02-08T22:25:54.005Z,76.32
2018-02-08T22:28:21.620Z,71.75
2018-02-08T22:30:49.241Z,69.18
2018-02-08T22:33:17.288Z,74.37
2018-02-08T22:35:49.317Z,67.75
2018-02-08T22:38:18.399Z,73.78
2018-02-08T22:40:46.014Z,76.62
2018-02-08T22:43:15.009Z,72.95
2018-02-08T22:45:42.664Z,70.47
2018-02-08T22:48:10.277Z,68.75
2018-02-08T22:50:37.893Z,69.50
2018-02-08T22:53:06.156Z,70.22
2018-02-08T22:55:37.688Z,66.68
2018-02-08T22:58:05.342Z,79.25
2018-02-08T23:00:32.969Z,74.37
2018-02-08T23:03:00.589Z,72.37
2018-02-08T23:05:28.236Z,62.60
2018-02-08T23:08:01.249Z,76.45
2018-02-08T23:10:28.897Z,73.22
2018-02-08T23:12:57.483Z,72.93
2018-02-08T23:15:25.126Z,76.43
2018-02-08T23:17:52.793Z,68.47
2018-02-08T23:20:25.122Z,69.37
2018-02-08T23:22:52.784Z,71.25
2018-02-08T23:25:20.428Z,72.07
2018-02-08T23:27:48.969Z,72.85
2018-02-08T23:30:16.625Z,70.20
2018-02-08T23:32:44.237Z,79.45
2018-02-08T23:35:12.612Z,69.93
2018-02-08T23:37:41.026Z,73.22
2018-02-08T23:40:08.651Z,71.40
2018-02-08T23:42:36.277Z,67.97
2018-02-08T23:45:03.987Z,75.53
2018-02-08T23:47:31.614Z,70.55
2018-02-08T23:49:59.996Z,75.97
2018-02-08T23:52:28.414Z,80.95
2018-02-08T23:54:56.028Z,80.47
2018-02-08T23:57:23.667Z,75.55
2018-02-08T23:59:51.324Z,68.93
